createdAt,value
2018-06-30T00:07:02.382Z,20.40
2018-06-30T00:11:57.012Z,20.30
2018-06-30T00:16:51.717Z,20.20
2018-06-30T00:21:46.406Z,20.20
2018-06-30T00:26:41.078Z,20.10
2018-06-30T00:31:35.580Z,20.00
2018-06-30T00:36:30.421Z,19.90
2018-06-30T00:41:25.180Z,19.90
2018-06-30T00:46:19.844Z,19.80
2018-06-30T00:56:09.554Z,19.60
2018-06-30T01:05:58.498Z,19.40
2018-06-30T01:10:53.053Z,19.40
2018-06-30T01:15:47.521Z,19.30
2018-06-30T01:20:42.544Z,19.30
2018-06-30T01:25:37.119Z,19.20
2018-06-30T01:30:31.701Z,19.10
2018-06-30T01:35:26.549Z,19.00
2018-06-30T01:40:21.182Z,19.00
2018-06-30T01:45:16.074Z,18.90
2018-06-30T01:50:11.154Z,18.90
2018-06-30T02:04:55.123Z,18.70
2018-06-30T02:09:49.617Z,18.60
2018-06-30T02:14:44.366Z,18.60
2018-06-30T02:19:38.954Z,18.50
2018-06-30T02:24:33.436Z,18.40
2018-06-30T02:34:22.173Z,18.40
2018-06-30T02:39:16.681Z,18.30
2018-06-30T02:44:11.376Z,18.20
2018-06-30T02:49:06.355Z,18.20
2018-06-30T02:54:01.075Z,18.10
2018-06-30T02:58:55.598Z,18.10
2018-06-30T03:08:44.841Z,18.00
2018-06-30T03:13:39.418Z,17.90
2018-06-30T03:18:33.995Z,17.90
2018-06-30T03:23:28.812Z,17.90
2018-06-30T03:28:23.515Z,17.80
2018-06-30T03:33:18.238Z,17.80
2018-06-30T03:38:12.937Z,17.70
2018-06-30T03:43:07.768Z,17.70
2018-06-30T03:52:56.955Z,17.70
2018-06-30T03:57:51.643Z,17.70
2018-06-30T04:02:46.665Z,17.70
2018-06-30T04:12:35.980Z,17.80
2018-06-30T04:17:30.666Z,17.90
2018-06-30T04:22:25.228Z,18.00
2018-06-30T04:27:19.740Z,18.10
2018-06-30T04:32:14.399Z,18.20
2018-06-30T04:37:08.891Z,18.30
2018-06-30T04:46:58.082Z,18.70
2018-06-30T04:56:47.226Z,19.20
2018-06-30T05:01:43.153Z,19.80
2018-06-30T05:06:37.866Z,20.70
2018-06-30T05:11:32.650Z,21.10
2018-06-30T05:16:27.135Z,22.40
2018-06-30T05:21:21.714Z,24.80
2018-06-30T05:26:16.199Z,27.00
2018-06-30T05:31:11.282Z,28.80
2018-06-30T05:36:06.251Z,30.40
2018-06-30T05:41:01.006Z,31.70
2018-06-30T05:45:55.920Z,32.50
2018-06-30T05:50:51.043Z,33.70
2018-06-30T05:55:45.864Z,34.50
2018-06-30T06:00:40.757Z,35.60
2018-06-30T06:05:35.677Z,36.60
2018-06-30T06:10:30.578Z,37.50
2018-06-30T06:20:20.318Z,39.90
2018-06-30T06:25:15.250Z,39.70
2018-06-30T06:30:10.537Z,40.30
2018-06-30T06:35:05.624Z,40.20
2018-06-30T06:40:00.550Z,40.00
2018-06-30T06:44:55.525Z,39.70
2018-06-30T06:49:50.385Z,40.90
2018-06-30T06:54:45.206Z,41.70
2018-06-30T06:59:39.964Z,42.40
2018-06-30T07:04:35.127Z,43.00
2018-06-30T07:09:30.386Z,43.60
2018-06-30T07:14:26.118Z,42.60
2018-06-30T07:24:16.888Z,43.90
2018-06-30T07:29:11.872Z,44.90
2018-06-30T07:34:06.720Z,46.20
2018-06-30T07:39:01.631Z,47.30
2018-06-30T07:43:56.395Z,47.10
2018-06-30T07:48:51.378Z,47.90
2018-06-30T07:53:46.312Z,48.80
2018-06-30T07:58:41.291Z,47.60
2018-06-30T08:08:30.529Z,50.00
2018-06-30T08:13:25.788Z,51.50
2018-06-30T08:18:20.645Z,50.80
2018-06-30T08:23:15.843Z,51.00
2018-06-30T08:28:10.585Z,51.60
2018-06-30T08:33:05.891Z,52.10
2018-06-30T08:47:49.677Z,52.20
2018-06-30T08:52:44.681Z,52.30
2018-06-30T08:57:40.289Z,54.00
2018-06-30T09:07:29.916Z,57.60
2018-06-30T09:12:24.778Z,59.00
2018-06-30T09:17:19.533Z,59.60
2018-06-30T09:22:14.355Z,57.80
2018-06-30T09:27:09.520Z,55.70
2018-06-30T09:32:04.384Z,55.70
2018-06-30T09:36:59.615Z,53.30
2018-06-30T09:41:54.355Z,54.30
2018-06-30T09:46:49.238Z,55.50
2018-06-30T09:51:44.110Z,53.80
2018-06-30T09:56:38.823Z,49.10
2018-06-30T10:06:28.122Z,41.60
2018-06-30T10:11:23.136Z,39.70
2018-06-30T10:16:17.896Z,36.80
2018-06-30T10:21:12.712Z,35.50
2018-06-30T10:26:07.922Z,33.60
2018-06-30T10:35:57.770Z,32.20
2018-06-30T10:40:52.522Z,31.40
2018-06-30T10:45:47.256Z,31.40
2018-06-30T10:50:42.844Z,31.40
2018-06-30T10:55:37.580Z,31.30
2018-06-30T11:00:32.483Z,31.20
2018-06-30T11:05:27.319Z,30.70
2018-06-30T11:10:22.446Z,30.80
2018-06-30T11:15:17.214Z,30.10
2018-06-30T11:20:12.320Z,29.80
2018-06-30T11:25:08.484Z,29.70
2018-06-30T11:30:03.220Z,29.70
2018-06-30T11:34:57.965Z,30.20
2018-06-30T11:39:52.781Z,30.40
2018-06-30T11:49:42.684Z,30.60
2018-06-30T11:54:38.163Z,30.80
2018-06-30T11:59:33.068Z,31.10
2018-06-30T12:04:28.677Z,31.50
2018-06-30T12:19:13.759Z,30.80
2018-06-30T12:24:08.891Z,30.70
2018-06-30T12:29:03.703Z,30.60
2018-06-30T12:33:58.499Z,31.00
2018-06-30T12:43:48.006Z,30.50
2018-06-30T12:48:43.390Z,30.40
2018-06-30T12:53:38.295Z,30.50
2018-06-30T12:58:33.308Z,30.40
2018-06-30T13:03:28.562Z,30.40
2018-06-30T13:08:23.314Z,30.50
2018-06-30T13:13:18.075Z,30.70
2018-06-30T13:18:13.082Z,30.70
2018-06-30T13:23:07.935Z,30.90
2018-06-30T13:28:03.108Z,31.10
2018-06-30T13:32:57.846Z,31.30
2018-06-30T13:37:53.222Z,31.00
2018-06-30T13:42:48.054Z,30.80
2018-06-30T13:47:42.972Z,30.50
2018-06-30T13:52:38.436Z,30.40
2018-06-30T13:57:33.604Z,30.60
2018-06-30T14:07:23.226Z,30.10
2018-06-30T14:17:12.773Z,30.20
2018-06-30T14:22:07.783Z,30.60
2018-06-30T14:27:02.791Z,30.90
2018-06-30T14:36:52.842Z,31.40
2018-06-30T14:46:42.242Z,30.60
2018-06-30T14:51:37.157Z,30.20
2018-06-30T15:01:26.855Z,30.20
2018-06-30T15:06:21.857Z,30.60
2018-06-30T15:11:16.646Z,31.10
2018-06-30T15:16:11.398Z,31.40
2018-06-30T15:21:07.024Z,31.60
2018-06-30T15:26:01.949Z,31.20
2018-06-30T15:30:56.796Z,30.60
2018-06-30T15:40:47.145Z,30.00
2018-06-30T15:50:38.541Z,29.70
2018-06-30T15:55:33.317Z,29.90
2018-06-30T16:05:22.989Z,30.20
2018-06-30T16:10:18.377Z,30.50
2018-06-30T16:15:14.106Z,30.60
2018-06-30T16:25:03.436Z,30.80
2018-06-30T16:29:58.558Z,30.80
2018-06-30T16:34:53.809Z,30.70
2018-06-30T16:39:48.590Z,30.60
2018-06-30T16:44:43.689Z,30.20
2018-06-30T16:49:38.566Z,30.00
2018-06-30T16:54:33.761Z,29.70
2018-06-30T16:59:28.552Z,29.60
2018-06-30T17:04:23.430Z,29.70
2018-06-30T17:09:18.205Z,29.70
2018-06-30T17:14:12.900Z,29.80
2018-06-30T17:19:07.816Z,29.80
2018-06-30T17:24:03.127Z,29.70
2018-06-30T17:28:58.416Z,29.60
2018-06-30T17:33:53.121Z,29.40
2018-06-30T17:39:05.921Z,29.20
2018-06-30T17:44:00.765Z,29.10
2018-06-30T17:48:55.782Z,28.90
2018-06-30T17:53:50.551Z,28.70
2018-06-30T18:03:40.163Z,28.50
2018-06-30T18:08:35.111Z,28.40
2018-06-30T18:13:30.154Z,28.20
2018-06-30T18:18:24.898Z,28.10
2018-06-30T18:23:19.685Z,27.90
2018-06-30T18:28:14.328Z,27.80
2018-06-30T18:33:08.834Z,27.70
2018-06-30T18:38:03.295Z,27.50
2018-06-30T18:42:58.214Z,27.40
2018-06-30T18:52:47.080Z,27.20
2018-06-30T18:57:41.770Z,27.00
2018-06-30T19:02:36.277Z,26.80
2018-06-30T19:07:30.802Z,26.60
2018-06-30T19:12:25.271Z,26.50
2018-06-30T19:17:19.981Z,26.30
2018-06-30T19:22:14.818Z,26.20
2018-06-30T19:27:09.304Z,26.00
2018-06-30T19:32:03.844Z,25.80
2018-06-30T19:36:58.467Z,25.60
2018-06-30T19:41:53.065Z,25.40
2018-06-30T19:46:49.279Z,25.30
2018-06-30T19:51:43.790Z,25.10
2018-06-30T19:56:38.479Z,24.90
2018-06-30T20:01:33.108Z,24.80
2018-06-30T20:06:27.593Z,24.70
2018-06-30T20:11:22.454Z,24.60
2018-06-30T20:16:17.453Z,24.40
2018-06-30T20:21:11.976Z,24.30
2018-06-30T20:26:06.718Z,24.10
2018-06-30T20:35:56.263Z,23.90
2018-06-30T20:40:51.774Z,23.80
2018-06-30T20:50:41.734Z,23.50
2018-06-30T20:55:37.101Z,23.40
2018-06-30T21:00:31.584Z,23.30
2018-06-30T21:05:26.564Z,23.10
2018-06-30T21:15:15.480Z,22.90
2018-06-30T21:20:10.528Z,22.80
2018-06-30T21:25:06.466Z,22.70
2018-06-30T21:30:01.606Z,22.60
2018-06-30T21:34:56.950Z,22.50
2018-06-30T21:49:41.234Z,22.20
2018-06-30T21:54:35.755Z,22.00
2018-06-30T21:59:30.377Z,21.90
2018-06-30T22:04:25.061Z,21.80
2018-06-30T22:09:20.327Z,21.70
2018-06-30T22:14:15.905Z,21.60
2018-06-30T22:19:10.762Z,21.40
2018-06-30T22:24:05.649Z,21.30
2018-06-30T22:29:00.933Z,21.30
2018-06-30T22:38:51.230Z,21.10
2018-06-30T22:43:45.937Z,21.00
2018-06-30T22:48:40.775Z,20.80
2018-06-30T22:53:35.333Z,20.80
2018-06-30T22:58:30.355Z,20.60
2018-06-30T23:03:25.175Z,20.60
2018-06-30T23:08:19.952Z,20.50
2018-06-30T23:13:18.758Z,20.40
2018-06-30T23:23:10.028Z,20.40
2018-06-30T23:28:05.148Z,20.30
2018-06-30T23:37:57.314Z,20.20
2018-06-30T23:42:52.061Z,20.20
2018-06-30T23:47:47.058Z,20.10
